Have a Safe July 4th! 

Flight Track Log - Related Links

Times and Time Zones

All times are in EST time to prevent confusion due to time zone crossing. See the N311AN flight status page for this flight to view local times or setup timezone preferences in your user account.

Time Position Orientation Groundspeed Altitude Reporting Facility
EST Latitude Longitude Course Direction KTS MPH feet Rate Location/Type
Wed 05:43:26 PM 28.3000 -81.4500 360° North 111 128 500  Level Orlando TRACON
Wed 05:43:44 PM 28.3167 -81.4500 360° North 111 128 800 835 Climbing Orlando TRACON
Wed 05:44:45 PM 28.3500 -81.4667 336° Northwest 131 151 1,600 744 Climbing Orlando TRACON
Wed 05:45:45 PM 28.3667 -81.5000 300° West 147 169 2,300 700 Climbing Orlando TRACON
Wed 05:46:45 PM 28.4000 -81.5333 319° Northwest 152 175 3,000 800 Climbing Orlando TRACON
Wed 05:47:45 PM 28.4167 -81.5667 300° West 135 155 3,900 900 Climbing Orlando TRACON
Wed 05:48:45 PM 28.4500 -81.5833 336° Northwest 154 177 4,800 850 Climbing Orlando TRACON
Wed 05:49:45 PM 28.5000 -81.5833 360° North 150 173 5,600 750 Climbing Orlando TRACON
Wed 05:50:45 PM 28.5333 -81.6000 336° Northwest 150 173 6,300 700 Climbing Orlando TRACON
Wed 05:51:45 PM 28.5833 -81.6000 360° North 154 177 7,000 450 Climbing Orlando TRACON
Wed 05:52:45 PM 28.6333 -81.6000 360° North 194 223 7,200 381 Climbing Orlando TRACON
Wed 05:53:51 PM 28.6833 -81.5833 16° North 188 216 7,800 524 Climbing Orlando TRACON
Wed 05:54:51 PM 28.7333 -81.5667 16° North 179 206 8,300 550 Climbing Orlando TRACON
Wed 05:55:51 PM 28.7833 -81.5333 30° Northeast 180 207 8,900 600 Climbing Orlando TRACON
Wed 05:56:51 PM 28.8167 -81.5167 352° North 183 211 9,500 640 Climbing Orlando TRACON
Wed 05:58:49 PM 28.9100 -81.4622 27° Northeast 204 235 10,800 607 Climbing Jacksonville Center
Wed 05:59:49 PM 28.9578 -81.4381 24° Northeast 186 214 11,300 600 Climbing Jacksonville Center
Wed 06:00:49 PM 29.0056 -81.4183 20° North 178 205 12,000 650 Climbing Jacksonville Center
Wed 06:01:49 PM 29.0533 -81.4081 11° North 170 196 12,600 550 Climbing Jacksonville Center
Wed 06:02:49 PM 29.1033 -81.4025 North 176 203 13,100 600 Climbing Jacksonville Center
Wed 06:03:49 PM 29.1536 -81.4042 358° North 176 203 13,800 600 Climbing Jacksonville Center
Wed 06:04:49 PM 29.2036 -81.4058 358° North 176 203 14,300 600 Climbing Jacksonville Center
Wed 06:05:49 PM 29.2539 -81.4097 356° North 176 203 15,000 700 Climbing Jacksonville Center
Wed 06:06:49 PM 29.3039 -81.4067 North 170 196 15,700 600 Climbing Jacksonville Center
Wed 06:07:49 PM 29.3519 -81.4131 353° North 180 207 16,200 550 Climbing Jacksonville Center
Wed 06:08:49 PM 29.4042 -81.4147 358° North 175 201 16,800 550 Climbing Jacksonville Center
Wed 06:09:49 PM 29.4542 -81.4211 354° North 182 209 17,300 500 Climbing Jacksonville Center
Wed 06:10:49 PM 29.5003 -81.4275 353° North 182 209 17,800 450 Climbing Jacksonville Center
Wed 06:11:49 PM 29.5506 -81.4339 354° North 182 209 18,200 550 Climbing Jacksonville Center
Wed 06:12:49 PM 29.5986 -81.4403 353° North 182 209 18,900 450 Climbing Jacksonville Center
Wed 06:13:49 PM 29.6508 -81.4444 356° North 182 209 19,100 150 Climbing Jacksonville Center
Wed 06:14:49 PM 29.7053 -81.4556 350° North 182 209 19,200 50 Climbing Jacksonville Center
Wed 06:15:49 PM 29.7636 -81.4619 355° North 192 221 19,200  Level Jacksonville Center
Wed 06:16:49 PM 29.8203 -81.4706 352° North 198 228 19,200 -50 Level Jacksonville Center
Wed 06:17:49 PM 29.8767 -81.4792 352° North 198 228 19,100 -50 Descending Jacksonville Center
Wed 06:18:49 PM 29.9353 -81.4881 353° North 198 228 19,100  Level Jacksonville Center
Wed 06:19:49 PM 29.9917 -81.4969 352° North 198 228 19,100 -50 Level Jacksonville Center
Wed 06:20:49 PM 30.0503 -81.5056 353° North 198 228 19,000 -50 Descending Jacksonville Center
Wed 06:21:49 PM 30.1067 -81.5144 352° North 198 228 19,000  Level Jacksonville Center
Wed 06:22:49 PM 30.1653 -81.5231 353° North 198 228 19,000  Level Jacksonville Center
Wed 06:23:49 PM 30.2217 -81.5294 354° North 198 228 19,000  Level Jacksonville Center
Wed 06:24:49 PM 30.2781 -81.5383 352° North 198 228 19,000 50 Level Jacksonville Center
Wed 06:25:49 PM 30.3344 -81.5472 352° North 198 228 19,100 50 Climbing Jacksonville Center
Wed 06:26:49 PM 30.3931 -81.5536 355° North 198 228 19,100  Level Jacksonville Center
Wed 06:27:49 PM 30.4494 -81.5600 354° North 203 234 19,100  Level Jacksonville Center
Wed 06:28:49 PM 30.5081 -81.5664 355° North 203 234 19,100  Level Jacksonville Center
Wed 06:29:49 PM 30.5667 -81.5728 355° North 203 234 19,100  Level Jacksonville Center
Wed 06:30:49 PM 30.6231 -81.5794 354° North 203 234 19,100 -50 Level Jacksonville Center
Wed 06:31:49 PM 30.6856 -81.5714 North 203 234 19,000 -50 Descending Jacksonville Center
Wed 06:32:49 PM 30.7458 -81.5486 18° North 213 245 19,000  Level Jacksonville Center
Wed 06:33:49 PM 30.8061 -81.5261 18° North 220 253 19,000 50 Level Jacksonville Center
Wed 06:34:49 PM 30.8708 -81.5058 15° North 226 260 19,100 50 Climbing Jacksonville Center
Wed 06:35:49 PM 30.9311 -81.4831 18° North 226 260 19,100 50 Level Jacksonville Center
Wed 06:36:49 PM 30.9914 -81.4675 12° North 226 260 19,200 50 Climbing Jacksonville Center
Wed 06:37:49 PM 31.0519 -81.4619 North 221 254 19,200 -50 Level Jacksonville Center
Wed 06:38:49 PM 31.1144 -81.4586 North 216 249 19,100 -50 Descending Jacksonville Center
Wed 06:39:49 PM 31.1728 -81.4528 North 216 249 19,100 -50 Level Jacksonville Center
Wed 06:40:49 PM 31.2356 -81.4444 North 216 249 19,000 -50 Descending Jacksonville Center
Wed 06:41:49 PM 31.2958 -81.4264 14° North 216 249 19,000  Level Jacksonville Center
Wed 06:42:49 PM 31.3581 -81.3989 21° North 221 254 19,000 -50 Level Jacksonville Center
Wed 06:43:49 PM 31.4267 -81.3733 18° North 226 260 18,900 -50 Descending Jacksonville Center
Wed 06:44:49 PM 31.4828 -81.3528 17° North 226 260 18,900  Level Jacksonville Center
Wed 06:45:49 PM 31.5472 -81.3225 22° Northeast 226 260 18,900  Level Jacksonville Center
Wed 06:46:49 PM 31.6072 -81.2922 23° Northeast 234 269 18,900  Level Jacksonville Center
Wed 06:47:49 PM 31.6614 -81.2644 24° Northeast 228 262 18,900  Level Jacksonville Center
Wed 06:48:49 PM 31.7275 -81.2292 24° Northeast 233 268 18,900  Level Jacksonville Center
Wed 06:49:49 PM 31.7817 -81.2014 24° Northeast 233 268 18,900  Level Jacksonville Center
Wed 06:50:49 PM 31.8478 -81.1658 25° Northeast 233 268 18,900  Level Jacksonville Center
Wed 06:51:49 PM 31.8997 -81.1331 28° Northeast 233 268 18,900  Level Jacksonville Center
Wed 06:52:49 PM 31.9619 -81.1050 21° North 233 268 18,900 -50 Level Jacksonville Center
Wed 06:53:49 PM 32.0197 -81.0719 26° Northeast 233 268 18,800  Descending Jacksonville Center
Wed 06:54:49 PM 32.0778 -81.0414 24° Northeast 233 268 18,900 100 Climbing Jacksonville Center
Wed 06:55:49 PM 32.1419 -81.0058 25° Northeast 233 268 19,000  Climbing Jacksonville Center
Wed 06:56:49 PM 32.2000 -80.9750 24° Northeast 233 268 18,900 -50 Descending Jacksonville Center
Wed 06:57:49 PM 32.2539 -80.9469 24° Northeast 233 268 18,900  Level Jacksonville Center
Wed 06:58:49 PM 32.3181 -80.9161 22° Northeast 228 262 18,900  Level Jacksonville Center
Wed 06:59:49 PM 32.3719 -80.8831 27° Northeast 228 262 18,900  Level Jacksonville Center
Wed 07:00:49 PM 32.4319 -80.8472 27° Northeast 233 268 18,900  Level Jacksonville Center
Wed 07:01:49 PM 32.4897 -80.8114 28° Northeast 233 268 18,900  Level Jacksonville Center
Wed 07:02:49 PM 32.5475 -80.7781 26° Northeast 238 274 18,900  Level Jacksonville Center
Wed 07:03:49 PM 32.6056 -80.7422 27° Northeast 238 274 18,900  Level Jacksonville Center
Wed 07:04:49 PM 32.6636 -80.7211 17° North 233 268 18,900 -50 Level Jacksonville Center
Wed 07:05:49 PM 32.7200 -80.7272 355° North 215 247 18,800 -50 Descending Jacksonville Center
Wed 07:06:49 PM 32.7725 -80.7431 346° North 208 239 18,800  Level Jacksonville Center
Wed 07:07:49 PM 32.8250 -80.7592 346° North 196 226 18,800  Level Jacksonville Center
Wed 07:08:49 PM 32.8775 -80.7753 346° North 191 220 18,800  Level Jacksonville Center
Wed 07:09:49 PM 32.9358 -80.7714 North 197 227 18,800  Level Jacksonville Center
Wed 07:10:49 PM 32.9983 -80.7600 North 202 232 18,800  Level Jacksonville Center
Wed 07:11:49 PM 33.0564 -80.7414 15° North 213 245 18,800  Level Jacksonville Center
Wed 07:12:49 PM 33.1186 -80.7275 11° North 218 251 18,800  Level Jacksonville Center
Wed 07:13:49 PM 33.1811 -80.7111 12° North 223 257 18,800  Level Jacksonville Center
Wed 07:14:49 PM 33.2411 -80.6922 15° North 223 257 18,800  Level Jacksonville Center
Wed 07:15:49 PM 33.3014 -80.6758 13° North 223 257 18,800 50 Level Jacksonville Center
Wed 07:16:49 PM 33.3617 -80.6594 13° North 223 257 18,900 100 Climbing Jacksonville Center
Wed 07:17:49 PM 33.4197 -80.6406 15° North 223 257 19,000 50 Climbing Jacksonville Center
Wed 07:18:49 PM 33.4781 -80.6242 13° North 223 257 19,000  Level Jacksonville Center
Wed 07:19:49 PM 33.5422 -80.6050 14° North 223 257 19,000  Level Jacksonville Center
Wed 07:20:49 PM 33.6025 -80.5858 15° North 223 257 19,000 -100 Level Jacksonville Center
Wed 07:21:49 PM 33.6625 -80.5644 17° North 223 257 18,800 -200 Descending Jacksonville Center
Wed 07:22:49 PM 33.7247 -80.5428 16° North 223 257 18,600 -200 Descending Jacksonville Center
Wed 07:23:49 PM 33.7828 -80.5214 17° North 223 257 18,400 -250 Descending Jacksonville Center
Wed 07:24:49 PM 33.8431 -80.5047 13° North 223 257 18,100 -250 Descending Jacksonville Center
Wed 07:25:49 PM 33.8989 -80.4831 18° North 218 251 17,900 -50 Descending Jacksonville Center
Wed 07:26:49 PM 33.9569 -80.4639 15° North 218 251 18,000 -100 Climbing Jacksonville Center
Wed 07:27:49 PM 34.0150 -80.4397 19° North 218 251 17,700 -400 Descending Jacksonville Center
Wed 07:28:49 PM 34.0753 -80.4231 13° North 218 251 17,200 -400 Descending Jacksonville Center
Wed 07:29:49 PM 34.1331 -80.4014 17° North 218 251 16,900 -400 Descending Jacksonville Center
Wed 07:30:49 PM 34.1914 -80.3872 11° North 218 251 16,400 -400 Descending Jacksonville Center
Wed 07:31:49 PM 34.2536 -80.3678 14° North 218 251 16,100 -300 Descending Jacksonville Center
Wed 07:32:49 PM 34.3117 -80.3561 North 218 251 15,800 -250 Descending Jacksonville Center
Wed 07:33:49 PM 34.3697 -80.3367 15° North 218 251 15,600 -250 Descending Jacksonville Center
Wed 07:34:49 PM 34.4256 -80.3200 14° North 218 251 15,300 -308 Descending Jacksonville Center
Wed 07:36:25 PM 34.5158 -80.3003 10° North 204 235 14,800 -308 Descending Atlanta Center
Wed 07:37:25 PM 34.5703 -80.3028 358° North 195 224 14,500 -397 Descending Atlanta Center
Wed 07:38:26 PM 34.6244 -80.3081 355° North 198 228 14,000 -234 Descending Atlanta Center
Wed 07:39:33 PM 34.6831 -80.3106 358° North 194 223 14,000  Level Atlanta Center
Wed 07:40:39 PM 34.7378 -80.3231 349° North 175 201 14,000  Level Atlanta Center
Wed 07:41:22 PM 34.7714 -80.3317 348° North 175 201 14,000  Level Atlanta Center
Wed 07:42:29 PM 34.8261 -80.3469 347° North 176 203 14,000 -49 Level Atlanta Center
Wed 07:43:24 PM 34.8681 -80.3553 351° North 181 208 13,900 -155 Descending Atlanta Center
Wed 07:44:25 PM 34.9208 -80.3733 344° North 185 213 13,700 -397 Descending Atlanta Center
Wed 07:45:25 PM 34.9711 -80.3861 348° North 186 214 13,100 -397 Descending Atlanta Center
Wed 07:46:26 PM 35.0239 -80.4042 344° North 187 215 12,900 -246 Descending Atlanta Center
Wed 07:47:27 PM 35.0722 -80.4147 350° North 185 213 12,600 -313 Descending Atlanta Center
Wed 07:48:21 PM 35.1186 -80.4306 344° North 185 213 12,300 -365 Descending Atlanta Center
Wed 07:49:22 PM 35.1669 -80.4461 345° North 181 208 11,900 -492 Descending Atlanta Center
Wed 07:50:23 PM 35.2236 -80.4514 356° North 191 220 11,300 -656 Descending Atlanta Center
Wed 07:51:30 PM 35.2781 -80.4567 355° North 190 219 10,500 -709 Descending Atlanta Center
Wed 07:52:30 PM 35.3322 -80.4619 355° North 191 220 9,800 -942 Descending Atlanta Center
Wed 07:53:31 PM 35.3867 -80.4697 353° North 200 230 8,600 -1,328 Descending Atlanta Center
Wed 07:54:32 PM 35.4456 -80.4825 350° North 201 231 7,100 -1,869 Descending Atlanta Center
Wed 07:55:33 PM 35.5044 -80.4978 348° North 208 239 4,800 -1,967 Descending Atlanta Center
Wed 07:56:34 PM 35.5531 -80.5214 338° Northwest 192 221 3,100 -1,672 Descending Atlanta Center

Login

Don't have an account? Register now (free) for customized features, flight alerts, and more!